createdAt,value
2022-10-07T00:00:52.623Z,3.00
2022-10-07T00:03:22.347Z,2.93
2022-10-07T00:06:03.373Z,3.27
2022-10-07T00:08:31.076Z,3.10
2022-10-07T00:10:58.023Z,3.00
2022-10-07T00:13:25.456Z,2.90
2022-10-07T00:15:52.398Z,2.80
2022-10-07T00:18:19.342Z,3.20
2022-10-07T00:20:46.051Z,2.80
2022-10-07T00:23:12.849Z,3.23
2022-10-07T00:25:39.775Z,2.87
2022-10-07T00:28:06.808Z,3.00
2022-10-07T00:30:33.731Z,2.63
2022-10-07T00:33:00.764Z,2.80
2022-10-07T00:35:28.550Z,2.90
2022-10-07T00:37:54.976Z,2.63
2022-10-07T00:40:21.489Z,3.10
2022-10-07T00:42:47.963Z,2.60
2022-10-07T00:45:17.693Z,2.60
2022-10-07T00:47:47.183Z,2.80
2022-10-07T00:50:29.435Z,2.57
2022-10-07T00:52:59.617Z,2.53
2022-10-07T00:55:29.790Z,2.70
2022-10-07T00:58:01.351Z,2.60
2022-10-07T01:00:28.278Z,2.50
2022-10-07T01:02:54.838Z,2.70
2022-10-07T01:05:21.519Z,2.70
2022-10-07T01:07:50.585Z,2.20
2022-10-07T01:10:20.155Z,2.33
2022-10-07T01:13:09.081Z,2.50
2022-10-07T01:15:42.038Z,2.80
2022-10-07T01:18:16.858Z,2.40
2022-10-07T01:20:49.397Z,2.83
2022-10-07T01:23:40.773Z,2.50
2022-10-07T01:26:27.340Z,2.57
2022-10-07T01:29:11.081Z,2.57
2022-10-07T01:31:48.803Z,2.77
2022-10-07T01:34:17.173Z,2.30
2022-10-07T01:36:50.924Z,2.77
2022-10-07T01:39:24.277Z,2.87
2022-10-07T01:41:51.367Z,3.10
2022-10-07T01:44:17.957Z,2.40
2022-10-07T01:46:44.730Z,2.00
2022-10-07T01:49:11.795Z,2.60
2022-10-07T01:51:55.369Z,2.10
2022-10-07T01:54:33.629Z,2.53
2022-10-07T01:57:18.496Z,2.63
2022-10-07T02:00:06.910Z,3.10
2022-10-07T02:03:18.425Z,2.57
2022-10-07T02:05:58.409Z,2.60
2022-10-07T02:08:39.876Z,3.10
2022-10-07T02:11:25.768Z,2.13
2022-10-07T02:14:20.129Z,2.33
2022-10-07T02:17:10.099Z,2.30
2022-10-07T02:19:41.335Z,2.90
2022-10-07T02:22:10.362Z,2.63
2022-10-07T02:24:38.931Z,2.20
2022-10-07T02:27:12.233Z,2.60
2022-10-07T02:29:42.972Z,2.60
2022-10-07T02:32:19.613Z,2.57
2022-10-07T02:34:54.732Z,2.33
2022-10-07T02:37:30.471Z,2.70
2022-10-07T02:39:57.980Z,2.30
2022-10-07T02:42:33.625Z,2.40
2022-10-07T02:45:09.212Z,2.80
2022-10-07T02:47:45.587Z,2.50
2022-10-07T02:50:17.519Z,1.90
2022-10-07T02:52:45.393Z,2.70
2022-10-07T02:55:16.400Z,2.60
2022-10-07T02:57:50.137Z,2.40
2022-10-07T03:00:18.897Z,2.50
2022-10-07T03:02:54.195Z,2.10
2022-10-07T03:05:26.034Z,2.67
2022-10-07T03:08:02.477Z,2.40
2022-10-07T03:10:31.354Z,2.17
2022-10-07T03:12:58.009Z,2.30
2022-10-07T03:15:25.938Z,2.30
2022-10-07T03:17:53.671Z,2.40
2022-10-07T03:20:20.159Z,2.80
2022-10-07T03:22:46.820Z,2.10
2022-10-07T03:25:17.110Z,2.40
2022-10-07T03:27:43.964Z,2.60
2022-10-07T03:30:11.605Z,2.57
2022-10-07T03:32:40.691Z,2.90
2022-10-07T03:35:09.049Z,2.50
2022-10-07T03:37:36.367Z,2.47
2022-10-07T03:40:05.495Z,2.57
2022-10-07T03:42:32.297Z,2.37
2022-10-07T03:44:59.370Z,2.40
2022-10-07T03:47:27.401Z,2.73
2022-10-07T03:49:54.710Z,2.63
2022-10-07T03:52:21.243Z,2.67
2022-10-07T03:54:47.851Z,2.40
2022-10-07T03:57:32.987Z,2.83
2022-10-07T04:00:00.513Z,2.67
2022-10-07T04:02:27.878Z,2.57
2022-10-07T04:04:55.427Z,2.73
2022-10-07T04:07:23.418Z,3.00
2022-10-07T04:09:51.291Z,2.80
2022-10-07T04:12:17.778Z,2.43
2022-10-07T04:14:44.928Z,2.60
2022-10-07T04:17:11.385Z,2.67
2022-10-07T04:19:37.998Z,2.63
2022-10-07T04:22:08.956Z,2.40
2022-10-07T04:24:37.133Z,2.50
2022-10-07T04:27:07.484Z,2.57
2022-10-07T04:29:39.033Z,3.07
2022-10-07T04:32:06.468Z,2.17
2022-10-07T04:34:33.495Z,2.10
2022-10-07T04:37:01.087Z,2.90
2022-10-07T04:39:48.891Z,2.53
2022-10-07T04:42:34.520Z,2.30
2022-10-07T04:45:00.994Z,2.17
2022-10-07T04:47:28.826Z,2.30
2022-10-07T04:49:55.725Z,2.27
2022-10-07T04:52:22.401Z,2.50
2022-10-07T04:54:49.137Z,2.20
2022-10-07T04:57:15.740Z,3.43
2022-10-07T04:59:43.652Z,3.67
2022-10-07T05:02:14.336Z,2.80
2022-10-07T05:04:44.135Z,2.60
2022-10-07T05:07:11.151Z,2.77
2022-10-07T05:09:38.459Z,2.73
2022-10-07T05:12:06.191Z,3.07
2022-10-07T05:14:33.712Z,3.00
2022-10-07T05:17:01.286Z,3.10
2022-10-07T05:19:32.190Z,3.13
2022-10-07T05:21:59.283Z,3.27
2022-10-07T05:24:26.789Z,4.33
2022-10-07T05:26:54.373Z,4.10
2022-10-07T05:29:21.384Z,4.87
2022-10-07T05:31:51.274Z,5.00
2022-10-07T05:34:21.452Z,4.60
2022-10-07T05:36:48.007Z,4.60
2022-10-07T05:39:14.599Z,4.67
2022-10-07T05:41:49.046Z,4.53
2022-10-07T05:44:18.908Z,3.83
2022-10-07T05:46:47.508Z,4.00
2022-10-07T05:49:15.703Z,3.03
2022-10-07T05:51:42.423Z,3.10
2022-10-07T05:54:09.387Z,3.00
2022-10-07T05:56:40.115Z,3.40
2022-10-07T05:59:10.505Z,2.57
2022-10-07T06:01:42.827Z,2.50
2022-10-07T06:04:14.079Z,2.37
2022-10-07T06:06:43.981Z,2.00
2022-10-07T06:09:30.883Z,2.53
2022-10-07T06:12:18.741Z,2.37
2022-10-07T06:14:46.856Z,2.67
2022-10-07T06:17:13.382Z,2.70
2022-10-07T06:19:41.653Z,2.37
2022-10-07T06:22:09.129Z,2.30
2022-10-07T06:24:37.435Z,2.40
2022-10-07T06:27:05.496Z,2.60
2022-10-07T06:29:32.126Z,2.43
2022-10-07T06:31:59.686Z,2.60
2022-10-07T06:34:27.014Z,2.87
2022-10-07T06:36:55.553Z,3.03
2022-10-07T06:39:22.712Z,2.83
2022-10-07T06:41:52.925Z,2.63
2022-10-07T06:44:28.299Z,2.70
2022-10-07T06:46:55.808Z,2.87
2022-10-07T06:49:22.594Z,2.90
2022-10-07T06:51:50.770Z,2.53
2022-10-07T06:54:17.298Z,2.43
2022-10-07T06:56:44.427Z,2.80
2022-10-07T06:59:10.924Z,2.90
2022-10-07T07:01:51.865Z,3.07
2022-10-07T07:04:18.664Z,2.70
2022-10-07T07:06:46.268Z,3.57
2022-10-07T07:09:12.782Z,2.60
2022-10-07T07:11:43.479Z,2.93
2022-10-07T07:14:19.986Z,2.60
2022-10-07T07:16:57.266Z,2.63
2022-10-07T07:19:25.888Z,2.87
2022-10-07T07:21:53.963Z,2.33
2022-10-07T07:24:22.964Z,2.90
2022-10-07T07:26:49.434Z,2.93
2022-10-07T07:29:16.580Z,3.47
2022-10-07T07:31:49.787Z,3.83
2022-10-07T07:34:17.291Z,3.60
2022-10-07T07:36:48.224Z,3.87
2022-10-07T07:39:17.584Z,3.80
2022-10-07T07:41:50.774Z,3.30
2022-10-07T07:44:20.391Z,3.37
2022-10-07T07:46:51.284Z,2.53
2022-10-07T07:49:20.900Z,2.77
2022-10-07T07:51:47.715Z,3.10
2022-10-07T07:54:24.900Z,2.83
2022-10-07T07:56:51.415Z,2.80
2022-10-07T07:59:20.054Z,2.83
2022-10-07T08:01:49.033Z,2.77
2022-10-07T08:04:16.649Z,3.00
2022-10-07T08:06:43.484Z,3.10
2022-10-07T08:09:10.179Z,2.70
2022-10-07T08:11:37.800Z,2.67
2022-10-07T08:14:04.601Z,2.57
2022-10-07T08:16:34.518Z,2.60
2022-10-07T08:19:01.153Z,2.40
2022-10-07T08:21:33.007Z,2.70
2022-10-07T08:24:03.806Z,2.67
2022-10-07T08:26:34.823Z,2.43
2022-10-07T08:29:04.686Z,2.63
2022-10-07T08:31:33.390Z,2.60
2022-10-07T08:34:03.013Z,2.47
2022-10-07T08:36:33.108Z,2.43
2022-10-07T08:39:01.128Z,2.70
2022-10-07T08:41:33.051Z,2.77
2022-10-07T08:44:20.765Z,2.70
2022-10-07T08:47:18.146Z,3.30
2022-10-07T08:50:09.825Z,2.83
2022-10-07T08:52:39.219Z,2.73
2022-10-07T08:55:24.439Z,2.77
2022-10-07T08:58:05.523Z,2.80
2022-10-07T09:00:50.602Z,2.70
2022-10-07T09:03:35.950Z,2.73
2022-10-07T09:06:13.845Z,2.70
2022-10-07T09:08:44.969Z,2.40
2022-10-07T09:11:20.035Z,2.23
2022-10-07T09:13:54.433Z,2.50
2022-10-07T09:16:32.366Z,2.30
2022-10-07T09:19:02.959Z,4.77
2022-10-07T09:21:42.334Z,3.07
2022-10-07T09:24:24.719Z,2.40
2022-10-07T09:26:56.758Z,2.40
2022-10-07T09:29:26.811Z,2.80
2022-10-07T09:31:54.001Z,2.70
2022-10-07T09:34:29.758Z,3.13
2022-10-07T09:37:11.585Z,2.60
2022-10-07T09:39:38.820Z,2.93
2022-10-07T09:42:30.894Z,2.83
2022-10-07T09:45:02.367Z,2.80
2022-10-07T09:47:36.872Z,2.40
2022-10-07T09:50:04.118Z,2.30
2022-10-07T09:52:32.373Z,2.43
2022-10-07T09:55:28.682Z,2.33
2022-10-07T09:58:04.023Z,2.37
2022-10-07T10:00:30.777Z,2.13
2022-10-07T10:03:07.601Z,2.43
2022-10-07T10:06:02.543Z,2.40
2022-10-07T10:08:34.585Z,2.60
2022-10-07T10:11:04.444Z,2.73
2022-10-07T10:13:38.334Z,2.10
2022-10-07T10:16:34.415Z,2.63
2022-10-07T10:19:03.789Z,2.53
2022-10-07T10:21:39.605Z,2.70
2022-10-07T10:24:11.899Z,2.47
2022-10-07T10:27:04.558Z,2.57
2022-10-07T10:29:57.269Z,2.40
2022-10-07T10:33:09.689Z,2.73
2022-10-07T10:35:53.719Z,2.43
2022-10-07T10:39:01.322Z,2.20
2022-10-07T10:41:39.090Z,2.87
2022-10-07T10:44:27.192Z,2.00
2022-10-07T10:47:08.713Z,2.87
2022-10-07T10:49:44.212Z,2.57
2022-10-07T10:52:45.229Z,2.60
2022-10-07T10:55:25.781Z,2.63
2022-10-07T10:58:30.151Z,2.90
2022-10-07T11:01:21.074Z,2.70
2022-10-07T11:03:59.590Z,2.77
2022-10-07T11:06:28.530Z,3.00
2022-10-07T11:08:58.931Z,2.40
2022-10-07T11:11:28.174Z,3.37
2022-10-07T11:14:01.929Z,3.03
2022-10-07T11:16:43.579Z,2.67
2022-10-07T11:19:28.853Z,2.93
2022-10-07T11:21:59.903Z,5.43
2022-10-07T11:24:54.798Z,3.00
2022-10-07T11:27:31.299Z,3.03
2022-10-07T11:30:17.814Z,3.20
2022-10-07T11:33:04.793Z,2.50
2022-10-07T11:35:31.364Z,2.70
2022-10-07T11:38:10.223Z,2.50
2022-10-07T11:40:42.933Z,2.50
2022-10-07T11:43:19.091Z,2.93
2022-10-07T11:45:54.208Z,2.40
2022-10-07T11:48:44.925Z,2.50
2022-10-07T11:51:25.136Z,2.10
2022-10-07T11:53:56.238Z,2.00
2022-10-07T11:56:25.996Z,2.60
2022-10-07T11:59:04.661Z,2.47
2022-10-07T12:01:35.469Z,2.07
2022-10-07T12:04:22.964Z,2.57
2022-10-07T12:07:27.097Z,2.40
2022-10-07T12:10:05.888Z,2.27
2022-10-07T12:12:46.679Z,2.67
2022-10-07T12:15:42.582Z,2.37
2022-10-07T12:18:13.262Z,2.40
2022-10-07T12:20:52.493Z,2.00
2022-10-07T12:23:18.955Z,3.67
2022-10-07T12:25:55.911Z,2.70
2022-10-07T12:28:55.669Z,2.70
2022-10-07T12:31:22.793Z,2.37
2022-10-07T12:34:04.381Z,2.40
2022-10-07T12:36:32.066Z,2.73
2022-10-07T12:39:02.505Z,2.60
2022-10-07T12:41:35.348Z,2.13
2022-10-07T12:44:36.234Z,2.40
2022-10-07T12:47:17.577Z,2.27
2022-10-07T12:49:50.931Z,2.37
2022-10-07T12:52:27.424Z,2.70
2022-10-07T12:54:58.430Z,2.20
2022-10-07T12:57:32.916Z,2.20
2022-10-07T13:00:04.063Z,2.73
2022-10-07T13:02:58.868Z,3.20
2022-10-07T13:06:05.349Z,2.87
2022-10-07T13:09:02.982Z,2.40
2022-10-07T13:12:14.389Z,2.10
2022-10-07T13:15:05.457Z,2.20
2022-10-07T13:17:46.083Z,2.33
2022-10-07T13:20:12.556Z,2.30
2022-10-07T13:22:46.573Z,2.40
2022-10-07T13:25:14.577Z,2.57
2022-10-07T13:27:48.288Z,2.40
2022-10-07T13:30:38.670Z,3.03
2022-10-07T13:33:28.873Z,2.53
2022-10-07T13:36:19.047Z,2.57
2022-10-07T13:38:47.161Z,2.23
2022-10-07T13:41:24.705Z,2.63
2022-10-07T13:43:55.036Z,2.30
2022-10-07T13:46:25.781Z,2.43
2022-10-07T13:48:56.212Z,2.17
2022-10-07T13:51:36.556Z,2.50
2022-10-07T13:54:15.878Z,2.27
2022-10-07T13:56:42.905Z,2.10
2022-10-07T13:59:18.527Z,2.40
2022-10-07T14:01:48.586Z,2.20
2022-10-07T14:04:15.009Z,2.47
2022-10-07T14:06:46.596Z,2.60
2022-10-07T14:09:17.750Z,2.13
2022-10-07T14:11:46.687Z,4.17
2022-10-07T14:14:20.295Z,2.13
2022-10-07T14:16:53.424Z,2.50
2022-10-07T14:19:21.214Z,2.87
2022-10-07T14:21:48.189Z,2.00
2022-10-07T14:24:20.234Z,2.90
2022-10-07T14:26:46.950Z,2.63
2022-10-07T14:29:37.497Z,2.43
2022-10-07T14:32:29.920Z,2.43
2022-10-07T14:35:15.037Z,2.10
2022-10-07T14:37:41.519Z,2.10
2022-10-07T14:40:23.225Z,2.67
2022-10-07T14:42:54.721Z,2.20
2022-10-07T14:45:24.690Z,2.70
2022-10-07T14:47:51.221Z,2.60
2022-10-07T14:50:19.526Z,2.20
2022-10-07T14:52:51.664Z,3.20
2022-10-07T14:55:26.357Z,2.87
2022-10-07T14:57:52.960Z,2.30
2022-10-07T15:00:25.305Z,2.90
2022-10-07T15:02:53.114Z,2.67
2022-10-07T15:05:19.636Z,3.00
2022-10-07T15:07:46.486Z,2.27
2022-10-07T15:10:19.331Z,2.83
2022-10-07T15:12:46.462Z,2.17
2022-10-07T15:15:14.689Z,2.37
2022-10-07T15:17:42.092Z,3.07
2022-10-07T15:20:11.187Z,2.23
2022-10-07T15:22:38.129Z,2.73
2022-10-07T15:25:09.543Z,2.23
2022-10-07T15:27:36.457Z,2.40
2022-10-07T15:30:07.430Z,2.30
2022-10-07T15:32:34.526Z,4.50
2022-10-07T15:35:01.566Z,4.50
2022-10-07T15:37:28.299Z,2.30
2022-10-07T15:39:55.182Z,2.30
2022-10-07T15:42:24.890Z,2.30
2022-10-07T15:44:52.368Z,2.50
2022-10-07T15:47:19.122Z,2.17
2022-10-07T15:49:45.629Z,4.53
2022-10-07T15:52:12.267Z,4.67
2022-10-07T15:54:39.506Z,3.80
2022-10-07T15:57:08.268Z,3.23
2022-10-07T15:59:35.639Z,3.23
2022-10-07T16:02:05.725Z,3.50
2022-10-07T16:04:32.973Z,2.50
2022-10-07T16:06:59.814Z,2.70
2022-10-07T16:09:27.092Z,2.43
2022-10-07T16:11:53.984Z,2.80
2022-10-07T16:14:20.405Z,3.00
2022-10-07T16:16:46.933Z,3.10
2022-10-07T16:19:13.818Z,3.33
2022-10-07T16:21:42.469Z,3.07
2022-10-07T16:24:12.905Z,2.77
2022-10-07T16:26:39.879Z,2.67
2022-10-07T16:29:30.463Z,2.67
2022-10-07T16:31:59.085Z,3.50
2022-10-07T16:34:27.986Z,2.73
2022-10-07T16:36:55.679Z,3.37
2022-10-07T16:39:22.517Z,4.13
2022-10-07T16:41:52.044Z,3.07
2022-10-07T16:44:19.919Z,3.13
2022-10-07T16:46:46.632Z,3.90
2022-10-07T16:49:18.094Z,3.90
2022-10-07T16:51:45.850Z,3.20
2022-10-07T16:54:17.663Z,3.00
2022-10-07T16:56:47.032Z,3.10
2022-10-07T16:59:21.897Z,2.67
2022-10-07T17:01:55.361Z,4.40
2022-10-07T17:04:22.465Z,4.00
2022-10-07T17:06:49.235Z,3.67
2022-10-07T17:09:17.328Z,3.80
2022-10-07T17:11:44.073Z,3.47
2022-10-07T17:14:18.943Z,4.07
2022-10-07T17:16:51.079Z,4.03
2022-10-07T17:19:19.784Z,3.93
2022-10-07T17:21:47.853Z,4.63
2022-10-07T17:24:15.567Z,4.77
2022-10-07T17:26:42.692Z,5.23
2022-10-07T17:29:12.009Z,4.30
2022-10-07T17:31:41.626Z,6.03
2022-10-07T17:34:08.990Z,5.97
2022-10-07T17:36:35.682Z,5.87
2022-10-07T17:39:02.453Z,5.13
2022-10-07T17:41:34.618Z,6.53
2022-10-07T17:44:05.957Z,5.43
2022-10-07T17:46:33.378Z,4.70
2022-10-07T17:49:02.248Z,4.20
2022-10-07T17:51:31.159Z,5.27
2022-10-07T17:54:02.460Z,5.93
2022-10-07T17:56:31.875Z,5.70
2022-10-07T17:58:59.115Z,4.93
2022-10-07T18:01:33.899Z,4.67
2022-10-07T18:04:09.858Z,3.83
2022-10-07T18:06:38.464Z,3.67
2022-10-07T18:09:06.786Z,3.77
2022-10-07T18:11:54.777Z,3.63
2022-10-07T18:14:40.026Z,3.67
2022-10-07T18:17:08.722Z,5.00
2022-10-07T18:19:35.574Z,4.83
2022-10-07T18:22:04.569Z,5.17
2022-10-07T18:24:31.153Z,4.90
2022-10-07T18:26:59.774Z,4.50
2022-10-07T18:29:32.061Z,5.27
2022-10-07T18:31:59.091Z,6.13
2022-10-07T18:34:25.988Z,6.57
2022-10-07T18:36:56.245Z,5.37
2022-10-07T18:39:27.910Z,5.40
2022-10-07T18:41:54.886Z,4.97
2022-10-07T18:44:21.750Z,4.43
2022-10-07T18:46:48.588Z,4.37
2022-10-07T18:49:15.064Z,3.90
2022-10-07T18:51:41.619Z,3.83
2022-10-07T18:54:09.792Z,4.40
2022-10-07T18:56:40.826Z,3.90
2022-10-07T18:59:09.915Z,4.10
2022-10-07T19:01:37.718Z,4.50
2022-10-07T19:04:05.690Z,4.23
2022-10-07T19:06:35.320Z,4.93
2022-10-07T19:09:06.499Z,4.50
2022-10-07T19:11:33.579Z,4.30
2022-10-07T19:14:01.216Z,4.10
2022-10-07T19:16:50.916Z,4.40
2022-10-07T19:19:20.561Z,4.80
2022-10-07T19:21:49.461Z,4.00
2022-10-07T19:24:16.507Z,4.33
2022-10-07T19:26:46.000Z,3.97
2022-10-07T19:29:13.823Z,4.83
2022-10-07T19:31:43.754Z,4.10
2022-10-07T19:34:16.001Z,4.70
2022-10-07T19:36:46.856Z,4.50
2022-10-07T19:39:20.191Z,8.20
2022-10-07T19:41:48.099Z,7.20
2022-10-07T19:44:15.177Z,6.63
2022-10-07T19:46:41.708Z,6.43
2022-10-07T19:49:09.405Z,5.97
2022-10-07T19:51:37.278Z,6.13
2022-10-07T19:54:12.920Z,7.20
2022-10-07T19:56:40.869Z,6.53
2022-10-07T19:59:10.209Z,6.37
2022-10-07T20:01:41.341Z,5.23
2022-10-07T20:04:13.303Z,5.10
2022-10-07T20:06:40.403Z,4.87
2022-10-07T20:09:09.193Z,4.27
2022-10-07T20:11:36.329Z,4.67
2022-10-07T20:14:04.739Z,3.73
2022-10-07T20:16:31.601Z,4.20
2022-10-07T20:19:01.623Z,4.40
2022-10-07T20:21:29.032Z,4.30
2022-10-07T20:23:56.554Z,4.13
2022-10-07T20:26:26.891Z,3.97
2022-10-07T20:28:56.060Z,4.60
2022-10-07T20:31:24.867Z,4.67
2022-10-07T20:33:53.538Z,4.33
2022-10-07T20:36:22.360Z,4.60
2022-10-07T20:39:15.921Z,4.67
2022-10-07T20:42:06.366Z,3.80
2022-10-07T20:44:33.232Z,4.53
2022-10-07T20:46:59.881Z,4.00
2022-10-07T20:49:28.609Z,4.23
2022-10-07T20:52:03.530Z,4.50
2022-10-07T20:54:32.599Z,4.30
2022-10-07T20:56:59.494Z,4.20
2022-10-07T20:59:27.854Z,3.77
2022-10-07T21:01:54.785Z,4.13
2022-10-07T21:04:22.183Z,4.00
2022-10-07T21:06:51.220Z,4.23
2022-10-07T21:09:19.199Z,3.93
2022-10-07T21:11:49.725Z,4.50
2022-10-07T21:14:19.722Z,4.10
2022-10-07T21:16:47.636Z,4.87
2022-10-07T21:19:15.301Z,4.17
2022-10-07T21:21:41.899Z,4.27
2022-10-07T21:24:08.688Z,4.27
2022-10-07T21:26:36.426Z,3.90
2022-10-07T21:29:05.006Z,3.97
2022-10-07T21:31:31.555Z,4.93
2022-10-07T21:34:01.917Z,5.23
2022-10-07T21:36:28.536Z,6.10
2022-10-07T21:38:58.552Z,5.40
2022-10-07T21:41:34.418Z,4.53
2022-10-07T21:44:03.174Z,3.53
2022-10-07T21:46:30.773Z,3.80
2022-10-07T21:48:57.750Z,3.70
2022-10-07T21:51:27.044Z,3.47
2022-10-07T21:53:55.298Z,3.70
2022-10-07T21:56:21.729Z,4.13
2022-10-07T21:58:49.490Z,4.13
2022-10-07T22:01:17.832Z,3.30
2022-10-07T22:03:45.187Z,3.47
2022-10-07T22:06:14.827Z,3.63
2022-10-07T22:08:44.002Z,3.87
2022-10-07T22:11:17.243Z,3.67
2022-10-07T22:13:51.609Z,4.40
2022-10-07T22:16:19.086Z,5.20
2022-10-07T22:18:51.027Z,5.70
2022-10-07T22:21:26.778Z,5.87
2022-10-07T22:23:58.210Z,6.10
2022-10-07T22:26:27.922Z,5.90
2022-10-07T22:28:54.945Z,5.90
2022-10-07T22:31:22.751Z,5.13
2022-10-07T22:33:54.719Z,5.70
2022-10-07T22:36:22.106Z,5.47
2022-10-07T22:38:48.549Z,4.40
2022-10-07T22:41:16.582Z,3.90
2022-10-07T22:43:44.735Z,4.10
2022-10-07T22:46:13.501Z,3.73
2022-10-07T22:48:43.134Z,3.20
2022-10-07T22:51:11.884Z,3.60
2022-10-07T22:53:41.002Z,3.43
2022-10-07T22:56:11.274Z,3.60
2022-10-07T22:58:39.962Z,3.00
2022-10-07T23:01:14.325Z,2.93
2022-10-07T23:03:43.969Z,3.23
2022-10-07T23:06:12.737Z,3.10
2022-10-07T23:08:39.776Z,3.53
2022-10-07T23:11:07.523Z,2.83
2022-10-07T23:13:36.380Z,3.33
2022-10-07T23:16:12.034Z,3.37
2022-10-07T23:18:42.533Z,2.80
2022-10-07T23:21:14.366Z,2.53
2022-10-07T23:23:43.400Z,2.40
2022-10-07T23:26:13.323Z,6.97
2022-10-07T23:28:40.498Z,7.53
2022-10-07T23:31:12.074Z,5.67
2022-10-07T23:33:38.867Z,4.03
2022-10-07T23:36:08.965Z,2.57
2022-10-07T23:38:38.909Z,2.40
2022-10-07T23:41:07.181Z,2.60
2022-10-07T23:43:34.473Z,2.40
2022-10-07T23:46:02.257Z,2.47
2022-10-07T23:48:28.967Z,3.27
2022-10-07T23:50:55.439Z,2.50
2022-10-07T23:53:22.580Z,2.57
2022-10-07T23:55:51.610Z,2.47
2022-10-07T23:58:20.357Z,2.50
